Time;durP1;ratioP1;P1;durP2;ratioP2;P2;SDS_P1;SDS_P2;PMS_P1;PMS_P2;Temp;Humidity;BMP_temperature;BMP_pressure;BME280_temperature;BME280_humidity;BME280_pressure;Samples;Min_cycle;Max_cycle;Signal;HPM_P1;HPM_P2
2022/08/31 00:04:01;;;;;;;0.00;0.00;;;12.40;99.90;;;;;;5081591;28;20477;-78
2022/08/31 00:06:30;;;;;;;0.00;0.00;;;12.40;99.90;;;;;;5081902;28;20438;-77
2022/08/31 00:09:00;;;;;;;0.00;0.00;;;12.40;99.90;;;;;;5082633;28;20750;-78
2022/08/31 00:11:30;;;;;;;0.00;0.00;;;12.40;99.90;;;;;;5081617;28;20430;-78
2022/08/31 00:14:01;;;;;;;0.00;0.00;;;12.40;99.90;;;;;;5082805;28;20734;-79
2022/08/31 00:16:32;;;;;;;0.00;0.00;;;12.40;99.90;;;;;;5084147;28;20829;-78
2022/08/31 00:19:02;;;;;;;0.00;0.00;;;12.40;99.90;;;;;;5082111;28;20798;-78
2022/08/31 00:21:30;;;;;;;0.00;0.00;;;12.30;99.90;;;;;;5082359;28;20545;-76
2022/08/31 00:23:58;;;;;;;0.00;0.00;;;12.30;99.90;;;;;;5080495;28;20462;-76
2022/08/31 00:26:26;;;;;;;0.00;0.00;;;12.30;99.90;;;;;;5080345;28;20786;-77
2022/08/31 00:28:55;;;;;;;0.00;0.00;;;12.30;99.90;;;;;;5080857;28;20855;-77
2022/08/31 00:31:23;;;;;;;0.00;0.00;;;12.30;99.90;;;;;;5080882;28;20858;-76
2022/08/31 00:33:52;;;;;;;0.00;0.00;;;12.20;99.90;;;;;;5080856;28;20987;-77
2022/08/31 00:36:22;;;;;;;0.00;0.00;;;12.30;99.90;;;;;;5082015;28;20552;-76
2022/08/31 00:38:50;;;;;;;0.00;0.00;;;12.20;99.90;;;;;;5081950;28;20486;-80
2022/08/31 00:41:21;;;;;;;0.00;0.00;;;12.30;99.90;;;;;;5082548;28;20819;-80
2022/08/31 00:43:52;;;;;;;0.00;0.00;;;12.30;99.90;;;;;;5083161;28;20946;-83
2022/08/31 00:46:23;;;;;;;0.00;0.00;;;12.40;99.90;;;;;;5084453;28;20494;-82
2022/08/31 00:48:57;;;;;;;0.00;0.00;;;12.40;99.90;;;;;;5083241;28;20932;-82
2022/08/31 00:51:27;;;;;;;0.00;0.00;;;12.50;99.90;;;;;;5083246;28;20599;-83
2022/08/31 00:53:57;;;;;;;0.00;0.00;;;12.50;99.90;;;;;;5092515;28;20439;-82
2022/08/31 00:56:26;;;;;;;0.00;0.00;;;12.50;99.90;;;;;;5103740;28;20458;-83
2022/08/31 00:58:54;;;;;;;0.00;0.00;;;12.50;99.90;;;;;;5089427;28;20480;-84
2022/08/31 01:01:24;;;;;;;0.00;0.00;;;12.50;99.90;;;;;;5088642;28;20530;-83
2022/08/31 01:03:52;;;;;;;0.00;0.00;;;12.50;99.90;;;;;;5088714;28;20459;-82
2022/08/31 01:06:20;;;;;;;0.00;0.00;;;12.50;99.90;;;;;;5088066;28;20995;-82
2022/08/31 01:08:49;;;;;;;0.00;0.00;;;12.50;99.90;;;;;;5089151;28;20470;-83
2022/08/31 01:11:19;;;;;;;0.00;0.00;;;12.50;99.90;;;;;;5090062;28;20454;-82
2022/08/31 01:13:47;;;;;;;0.00;0.00;;;12.60;99.90;;;;;;5088844;28;20510;-83
2022/08/31 01:16:21;;;;;;;0.00;0.00;;;12.60;99.90;;;;;;5087883;28;20815;-84
2022/08/31 01:18:52;;;;;;;0.00;0.00;;;12.60;99.90;;;;;;5087484;28;20972;-83
2022/08/31 01:21:26;;;;;;;0.00;0.00;;;12.60;99.90;;;;;;5087721;28;20433;-83
2022/08/31 01:23:58;;;;;;;0.00;0.00;;;12.50;99.90;;;;;;5085671;28;20430;-84
2022/08/31 01:26:28;;;;;;;0.00;0.00;;;12.50;99.90;;;;;;5087755;28;20465;-83
2022/08/31 01:29:00;;;;;;;0.00;0.00;;;12.50;99.90;;;;;;5093565;28;20631;-84
2022/08/31 01:31:32;;;;;;;0.00;0.00;;;12.50;99.90;;;;;;5092121;28;20741;-81
2022/08/31 01:34:01;;;;;;;0.00;0.00;;;12.50;99.90;;;;;;5091185;28;20473;-82
2022/08/31 01:36:30;;;;;;;0.00;0.00;;;12.40;99.90;;;;;;5091082;28;20434;-82
2022/08/31 01:38:59;;;;;;;0.00;0.00;;;12.40;99.90;;;;;;5090884;28;20521;-81
2022/08/31 01:41:27;;;;;;;0.00;0.00;;;12.40;99.90;;;;;;5090141;28;20564;-82
2022/08/31 01:43:55;;;;;;;0.00;0.00;;;12.40;99.90;;;;;;5091700;28;20438;-81
2022/08/31 01:46:24;;;;;;;0.00;0.00;;;12.40;99.90;;;;;;5093178;28;20458;-81
2022/08/31 01:48:52;;;;;;;0.00;0.00;;;12.40;99.90;;;;;;5094188;28;20830;-81
2022/08/31 01:51:22;;;;;;;0.00;0.00;;;12.40;99.90;;;;;;5097704;28;20742;-80
2022/08/31 01:53:52;;;;;;;0.00;0.00;;;12.40;99.90;;;;;;5096886;28;20443;-81
2022/08/31 01:56:24;;;;;;;0.00;0.00;;;12.40;99.90;;;;;;5089303;28;20524;-81
2022/08/31 01:58:53;;;;;;;0.00;0.00;;;12.40;99.90;;;;;;5104263;28;20447;-81
2022/08/31 02:01:24;;;;;;;0.00;0.00;;;12.40;99.90;;;;;;5089250;28;20477;-82
2022/08/31 02:04:01;;;;;;;0.00;0.00;;;12.40;99.90;;;;;;5087907;28;20949;-82
2022/08/31 02:06:29;;;;;;;0.00;0.00;;;12.40;99.90;;;;;;5089984;28;20728;-81
2022/08/31 02:08:57;;;;;;;0.00;0.00;;;12.40;99.90;;;;;;5087704;28;20558;-82
2022/08/31 02:11:26;;;;;;;0.00;0.00;;;12.40;99.90;;;;;;5086791;28;20537;-81
2022/08/31 02:13:54;;;;;;;0.00;0.00;;;12.40;99.90;;;;;;5087597;28;20732;-81
2022/08/31 02:22:30;;;;;;;0.00;0.00;;;12.30;99.90;;;;;;5066837;28;20922;-81
2022/08/31 02:24:58;;;;;;;0.00;0.00;;;12.30;99.90;;;;;;5065135;28;20463;-80
2022/08/31 02:27:27;;;;;;;0.00;0.00;;;12.30;99.90;;;;;;5066030;28;20448;-82
2022/08/31 02:29:55;;;;;;;0.00;0.00;;;12.30;99.90;;;;;;5065775;28;20486;-80
2022/08/31 02:32:23;;;;;;;0.00;0.00;;;12.30;99.90;;;;;;5066583;28;21008;-79
2022/08/31 02:34:51;;;;;;;0.00;0.00;;;12.40;99.90;;;;;;5069646;28;20921;-80
2022/08/31 02:37:19;;;;;;;0.00;0.00;;;12.40;99.90;;;;;;5071713;28;20475;-80
2022/08/31 02:39:47;;;;;;;0.00;0.00;;;12.40;99.90;;;;;;5071562;28;20473;-80
2022/08/31 02:42:16;;;;;;;0.00;0.00;;;12.40;99.90;;;;;;5069688;28;20427;-81
2022/08/31 02:44:46;;;;;;;0.00;0.00;;;12.40;99.90;;;;;;5069101;28;20504;-80
2022/08/31 02:47:14;;;;;;;0.00;0.00;;;12.30;99.90;;;;;;5069158;28;20439;-80
2022/08/31 02:49:42;;;;;;;0.00;0.00;;;12.40;99.90;;;;;;5064969;28;20468;-82
2022/08/31 02:52:10;;;;;;;0.00;0.00;;;12.30;99.90;;;;;;5065860;28;20506;-80
2022/08/31 02:54:38;;;;;;;0.00;0.00;;;12.30;99.90;;;;;;5066962;28;20974;-81
2022/08/31 02:57:05;;;;;;;0.00;0.00;;;12.40;99.90;;;;;;5067772;28;20528;-79
2022/08/31 02:59:33;;;;;;;0.00;0.00;;;12.40;99.90;;;;;;5069062;28;20466;-80
2022/08/31 03:02:03;;;;;;;0.00;0.00;;;12.40;99.90;;;;;;5073195;28;20485;-79
2022/08/31 03:04:31;;;;;;;0.00;0.00;;;12.50;99.90;;;;;;5084873;28;20440;-81
2022/08/31 03:06:59;;;;;;;0.00;0.00;;;12.60;99.90;;;;;;5064980;28;20459;-81
2022/08/31 03:09:27;;;;;;;0.00;0.00;;;12.70;99.90;;;;;;5048079;28;21178;-81
2022/08/31 03:11:54;;;;;;;0.00;0.00;;;12.70;99.90;;;;;;5065599;28;20653;-81
2022/08/31 03:14:22;;;;;;;0.00;0.00;;;12.70;99.90;;;;;;5056279;28;20460;-82
2022/08/31 03:16:50;;;;;;;0.00;0.00;;;12.70;99.90;;;;;;5047081;28;20883;-81
2022/08/31 03:19:20;;;;;;;0.00;0.00;;;12.70;99.90;;;;;;5045574;28;20858;-81
2022/08/31 03:21:48;;;;;;;0.00;0.00;;;12.60;99.90;;;;;;5060345;28;20518;-82
2022/08/31 03:24:22;;;;;;;0.00;0.00;;;12.60;99.90;;;;;;5045268;28;20471;-82
2022/08/31 03:26:54;;;;;;;0.00;0.00;;;12.50;99.90;;;;;;5044032;28;20956;-82
2022/08/31 03:29:21;;;;;;;0.00;0.00;;;12.40;99.90;;;;;;5045504;28;20464;-83
2022/08/31 03:31:49;;;;;;;0.00;0.00;;;12.40;99.90;;;;;;5059595;28;20919;-82
2022/08/31 03:34:17;;;;;;;0.00;0.00;;;12.30;99.90;;;;;;5069953;28;20595;-81
2022/08/31 03:36:46;;;;;;;0.00;0.00;;;12.30;99.90;;;;;;5070558;28;20441;-81
2022/08/31 03:39:14;;;;;;;0.00;0.00;;;12.30;99.90;;;;;;5070793;28;20478;-81
2022/08/31 03:41:42;;;;;;;0.00;0.00;;;12.30;99.90;;;;;;5065037;28;20487;-80
2022/08/31 03:44:11;;;;;;;0.00;0.00;;;12.30;99.90;;;;;;5065753;28;20459;-80
2022/08/31 03:46:43;;;;;;;0.00;0.00;;;12.30;99.90;;;;;;5059484;28;20480;-80
2022/08/31 03:49:11;;;;;;;0.00;0.00;;;12.30;99.90;;;;;;5050940;28;20480;-79
2022/08/31 03:51:39;;;;;;;0.00;0.00;;;12.20;99.90;;;;;;5055644;28;20670;-80
2022/08/31 03:54:08;;;;;;;0.00;0.00;;;12.10;99.90;;;;;;5053478;28;20453;-80
2022/08/31 03:56:36;;;;;;;0.00;0.00;;;12.10;99.90;;;;;;5055923;28;20531;-81
2022/08/31 03:59:04;;;;;;;0.00;0.00;;;12.00;99.90;;;;;;5054086;28;20532;-78
2022/08/31 04:01:31;;;;;;;0.00;0.00;;;12.00;99.90;;;;;;5055291;28;21091;-78
2022/08/31 04:04:00;;;;;;;0.00;0.00;;;12.00;99.90;;;;;;5051571;28;20436;-80
2022/08/31 04:06:28;;;;;;;0.00;0.00;;;11.90;99.90;;;;;;5050412;28;20436;-80
2022/08/31 04:08:56;;;;;;;0.00;0.00;;;11.90;99.90;;;;;;5053038;28;20858;-81
2022/08/31 04:11:26;;;;;;;0.00;0.00;;;12.00;99.90;;;;;;5047900;28;20455;-82
2022/08/31 04:14:12;;;;;;;0.00;0.00;;;12.00;99.90;;;;;;5051618;28;20448;-80
2022/08/31 04:16:43;;;;;;;0.00;0.00;;;12.00;99.90;;;;;;5065284;28;20459;-81
2022/08/31 04:19:14;;;;;;;0.00;0.00;;;12.00;99.90;;;;;;5070336;28;20598;-80
2022/08/31 04:21:43;;;;;;;0.00;0.00;;;12.10;99.90;;;;;;5054806;28;20483;-80
2022/08/31 04:24:12;;;;;;;0.00;0.00;;;12.10;99.90;;;;;;5051466;28;20437;-81
2022/08/31 04:26:41;;;;;;;0.00;0.00;;;12.10;99.90;;;;;;5051899;28;20566;-80
2022/08/31 04:29:10;;;;;;;0.00;0.00;;;12.20;99.90;;;;;;5052347;28;20791;-82
2022/08/31 04:31:40;;;;;;;0.00;0.00;;;12.20;99.90;;;;;;5049864;28;20459;-85
2022/08/31 04:34:08;;;;;;;0.00;0.00;;;12.20;99.90;;;;;;5051087;28;20674;-79
2022/08/31 04:36:38;;;;;;;0.00;0.00;;;12.20;99.90;;;;;;5052283;28;20436;-77
2022/08/31 04:39:06;;;;;;;0.00;0.00;;;12.20;99.90;;;;;;5055672;28;20741;-78
2022/08/31 04:41:37;;;;;;;0.00;0.00;;;12.20;99.90;;;;;;5045796;28;20487;-78
2022/08/31 04:44:06;;;;;;;0.00;0.00;;;12.20;99.90;;;;;;5044892;28;20452;-76
2022/08/31 04:46:37;;;;;;;0.00;0.00;;;12.20;99.90;;;;;;5043175;28;20498;-77
2022/08/31 04:49:08;;;;;;;0.00;0.00;;;12.10;99.90;;;;;;5058519;28;20542;-81
2022/08/31 04:51:38;;;;;;;0.00;0.00;;;12.10;99.90;;;;;;5064276;28;20491;-78
2022/08/31 04:54:08;;;;;;;0.00;0.00;;;12.10;99.90;;;;;;5065766;28;20851;-78
2022/08/31 04:56:39;;;;;;;0.00;0.00;;;12.10;99.90;;;;;;5062172;28;20939;-75
2022/08/31 04:59:10;;;;;;;0.00;0.00;;;12.10;99.90;;;;;;5058337;28;20547;-75
2022/08/31 05:01:40;;;;;;;0.00;0.00;;;12.10;99.90;;;;;;5058629;28;20482;-70
2022/08/31 05:04:11;;;;;;;0.00;0.00;;;12.10;99.90;;;;;;5058677;28;20827;-70
2022/08/31 05:06:41;;;;;;;0.00;0.00;;;12.10;99.90;;;;;;5058856;28;20443;-71
2022/08/31 05:09:12;;;;;;;0.00;0.00;;;12.10;99.90;;;;;;5058144;28;20465;-70
2022/08/31 05:11:41;;;;;;;0.00;0.00;;;12.20;99.90;;;;;;5063103;28;21037;-70
2022/08/31 05:14:10;;;;;;;0.00;0.00;;;12.10;99.90;;;;;;5044149;28;20444;-70
2022/08/31 05:16:39;;;;;;;0.00;0.00;;;12.10;99.90;;;;;;5045221;28;21052;-77
2022/08/31 05:19:08;;;;;;;0.00;0.00;;;12.20;99.90;;;;;;5044891;28;20499;-76
2022/08/31 05:21:37;;;;;;;0.00;0.00;;;12.30;99.90;;;;;;5044636;28;20488;-77
2022/08/31 05:24:08;;;;;;;0.00;0.00;;;12.40;99.90;;;;;;5045874;28;20462;-78
2022/08/31 05:26:39;;;;;;;0.00;0.00;;;12.50;99.90;;;;;;5051790;28;20779;-77
2022/08/31 05:29:13;;;;;;;0.00;0.00;;;12.50;99.90;;;;;;5050281;28;20550;-77
2022/08/31 05:31:44;;;;;;;0.00;0.00;;;12.60;99.90;;;;;;5048406;28;20504;-75
2022/08/31 05:34:19;;;;;;;0.00;0.00;;;12.60;99.90;;;;;;5051141;28;20451;-76
2022/08/31 05:36:50;;;;;;;0.00;0.00;;;12.70;99.90;;;;;;5045392;28;20456;-78
2022/08/31 05:39:19;;;;;;;0.00;0.00;;;12.70;99.90;;;;;;5044105;28;20998;-76
2022/08/31 05:41:47;;;;;;;0.00;0.00;;;12.80;99.90;;;;;;5058669;28;20528;-77
2022/08/31 05:44:18;;;;;;;0.00;0.00;;;12.90;99.90;;;;;;5060904;28;20447;-73
2022/08/31 05:46:47;;;;;;;0.00;0.00;;;12.90;99.90;;;;;;5051416;28;20507;-76
2022/08/31 05:49:30;;;;;;;0.00;0.00;;;12.90;99.90;;;;;;5047878;28;20534;-76
2022/08/31 05:51:59;;;;;;;0.00;0.00;;;13.00;99.90;;;;;;5056801;28;20539;-76
2022/08/31 05:54:27;;;;;;;0.00;0.00;;;13.00;99.90;;;;;;5068902;28;20516;-77
2022/08/31 05:56:55;;;;;;;0.00;0.00;;;13.10;99.90;;;;;;5066171;28;20446;-75
2022/08/31 05:59:30;;;;;;;0.00;0.00;;;13.20;99.90;;;;;;5058943;28;20826;-77
2022/08/31 06:01:58;;;;;;;0.00;0.00;;;13.20;99.90;;;;;;5043652;28;20474;-71
2022/08/31 06:04:27;;;;;;;0.00;0.00;;;13.30;99.90;;;;;;5060792;28;20496;-72
2022/08/31 06:06:56;;;;;;;0.00;0.00;;;13.40;99.90;;;;;;5061415;28;20442;-71
2022/08/31 06:09:24;;;;;;;0.00;0.00;;;13.40;99.90;;;;;;5043179;28;20544;-71
2022/08/31 06:11:52;;;;;;;0.00;0.00;;;13.50;99.90;;;;;;5055139;28;20936;-68
2022/08/31 06:14:21;;;;;;;0.00;0.00;;;13.60;99.90;;;;;;5055123;28;20528;-68
2022/08/31 06:16:55;;;;;;;0.00;0.00;;;13.60;99.90;;;;;;5041386;28;20456;-67
2022/08/31 06:19:23;;;;;;;0.00;0.00;;;13.80;99.90;;;;;;5046867;28;20473;-68
2022/08/31 06:21:51;;;;;;;0.00;0.00;;;13.90;99.90;;;;;;5062053;28;20454;-68
2022/08/31 06:24:19;;;;;;;0.00;0.00;;;14.00;99.90;;;;;;5061678;28;20436;-67
2022/08/31 06:26:54;;;;;;;0.00;0.00;;;14.10;99.90;;;;;;5058688;28;20478;-69
2022/08/31 06:29:26;;;;;;;0.00;0.00;;;14.20;99.90;;;;;;5063303;28;20463;-68
2022/08/31 06:31:55;;;;;;;0.00;0.00;;;14.30;99.90;;;;;;5060141;28;20450;-69
2022/08/31 06:34:23;;;;;;;0.00;0.00;;;14.30;99.90;;;;;;5060584;28;20454;-67
2022/08/31 06:36:51;;;;;;;0.00;0.00;;;14.40;99.90;;;;;;5059398;28;21017;-67
2022/08/31 06:39:19;;;;;;;0.00;0.00;;;14.50;99.90;;;;;;5059414;28;20542;-70
2022/08/31 06:41:47;;;;;;;0.00;0.00;;;14.70;99.90;;;;;;5059495;28;20481;-71
2022/08/31 06:44:15;;;;;;;0.00;0.00;;;14.70;99.90;;;;;;5059346;28;20450;-70
2022/08/31 06:46:43;;;;;;;0.00;0.00;;;14.90;99.90;;;;;;5058527;28;20828;-70
2022/08/31 06:49:16;;;;;;;0.00;0.00;;;14.90;99.90;;;;;;5052026;28;20498;-70
2022/08/31 06:51:44;;;;;;;0.00;0.00;;;15.00;99.90;;;;;;5051568;28;20532;-73
2022/08/31 06:54:14;;;;;;;0.00;0.00;;;15.10;99.90;;;;;;5056048;28;20841;-66
2022/08/31 06:56:57;;;;;;;0.00;0.00;;;15.20;99.90;;;;;;5060077;28;20447;-69
2022/08/31 06:59:25;;;;;;;0.00;0.00;;;15.30;99.90;;;;;;5043246;28;20476;-66
2022/08/31 07:01:57;;;;;;;0.00;0.00;;;15.40;99.90;;;;;;5052619;28;20444;-68
2022/08/31 07:04:27;;;;;;;0.00;0.00;;;15.60;99.90;;;;;;5059613;28;20455;-66
2022/08/31 07:06:55;;;;;;;0.00;0.00;;;15.70;99.90;;;;;;5058996;28;20439;-66
2022/08/31 07:09:23;;;;;;;0.00;0.00;;;15.80;99.90;;;;;;5059025;28;20538;-66
2022/08/31 07:11:52;;;;;;;0.00;0.00;;;15.90;99.90;;;;;;5059003;28;20435;-68
2022/08/31 07:14:22;;;;;;;0.00;0.00;;;16.10;99.90;;;;;;5059213;28;20836;-68
2022/08/31 07:16:52;;;;;;;0.00;0.00;;;16.10;99.90;;;;;;5061166;28;20794;-68
2022/08/31 07:19:20;;;;;;;0.00;0.00;;;16.20;99.90;;;;;;5067935;28;20460;-68
2022/08/31 07:21:52;;;;;;;0.00;0.00;;;16.30;99.90;;;;;;5073685;28;20543;-68
2022/08/31 07:24:22;;;;;;;0.00;0.00;;;16.40;99.90;;;;;;5079360;28;20850;-68
2022/08/31 07:26:53;;;;;;;0.00;0.00;;;16.50;99.90;;;;;;5045294;28;20440;-66
2022/08/31 07:29:22;;;;;;;0.00;0.00;;;16.70;99.90;;;;;;5038937;28;20557;-69
2022/08/31 07:31:50;;;;;;;0.00;0.00;;;16.80;99.90;;;;;;5042094;28;20442;-69
2022/08/31 07:34:24;;;;;;;0.00;0.00;;;16.90;99.90;;;;;;5059177;28;20442;-69
2022/08/31 07:42:34;;;;;;;0.00;0.00;;;17.30;99.90;;;;;;5010422;28;20433;-67
2022/08/31 07:45:05;;;;;;;0.00;0.00;;;17.30;99.90;;;;;;5039292;28;20444;-68
2022/08/31 07:47:41;;;;;;;0.00;0.00;;;17.40;99.90;;;;;;5039499;28;20527;-68
2022/08/31 07:50:10;;;;;;;0.00;0.00;;;17.50;99.90;;;;;;5039721;28;20459;-68
2022/08/31 07:52:47;;;;;;;0.00;0.00;;;17.60;99.90;;;;;;5077770;28;20453;-67
2022/08/31 07:55:17;;;;;;;0.00;0.00;;;17.60;99.90;;;;;;5064231;28;20951;-67
2022/08/31 07:57:46;;;;;;;0.00;0.00;;;17.80;99.90;;;;;;5038313;28;20452;-71
2022/08/31 08:00:18;;;;;;;0.00;0.00;;;17.80;99.90;;;;;;5055950;28;20912;-71
2022/08/31 08:02:48;;;;;;;0.00;0.00;;;17.80;99.90;;;;;;5058233;28;20507;-71
2022/08/31 08:05:22;;;;;;;0.00;0.00;;;17.80;99.90;;;;;;5059121;28;20435;-68
2022/08/31 08:08:04;;;;;;;0.00;0.00;;;17.90;99.90;;;;;;5048195;28;20557;-68
2022/08/31 08:10:47;;;;;;;0.00;0.00;;;18.00;99.90;;;;;;5049491;28;20939;-69
2022/08/31 08:13:19;;;;;;;0.00;0.00;;;18.10;99.90;;;;;;5038896;28;20441;-69
2022/08/31 08:15:49;;;;;;;0.00;0.00;;;18.20;99.90;;;;;;5038533;28;20445;-70
2022/08/31 08:18:19;;;;;;;0.00;0.00;;;18.20;99.90;;;;;;5038575;28;20729;-69
2022/08/31 08:20:47;;;;;;;0.00;0.00;;;18.30;99.90;;;;;;5042466;28;20483;-69
2022/08/31 08:23:18;;;;;;;0.00;0.00;;;18.40;99.90;;;;;;5058420;28;20581;-69
2022/08/31 08:25:55;;;;;;;0.00;0.00;;;18.50;99.90;;;;;;5058032;28;20739;-70
2022/08/31 08:28:26;;;;;;;0.00;0.00;;;18.50;99.90;;;;;;5058518;28;20872;-69
2022/08/31 08:31:11;;;;;;;0.00;0.00;;;18.60;99.90;;;;;;5057822;28;20456;-69
2022/08/31 08:33:39;;;;;;;0.00;0.00;;;18.60;99.90;;;;;;5056480;28;20450;-69
2022/08/31 08:36:08;;;;;;;0.00;0.00;;;18.70;99.90;;;;;;5052736;28;20844;-70
2022/08/31 08:38:41;;;;;;;0.00;0.00;;;18.70;99.90;;;;;;5058685;28;20838;-69
2022/08/31 08:41:14;;;;;;;0.00;0.00;;;18.80;99.90;;;;;;5057269;28;20684;-70
2022/08/31 08:43:44;;;;;;;0.00;0.00;;;18.80;99.90;;;;;;5058129;28;20474;-69
2022/08/31 08:46:28;;;;;;;0.00;0.00;;;18.90;99.90;;;;;;5057780;28;20449;-69
2022/08/31 08:49:15;;;;;;;0.00;0.00;;;19.00;99.90;;;;;;5057285;28;20515;-68
2022/08/31 08:51:46;;;;;;;0.00;0.00;;;19.10;99.90;;;;;;5057588;28;20444;-69
2022/08/31 08:54:26;;;;;;;0.00;0.00;;;19.20;99.90;;;;;;5057415;28;20865;-69
2022/08/31 08:56:53;;;;;;;0.00;0.00;;;19.30;99.90;;;;;;5057324;28;20439;-69
2022/08/31 08:59:21;;;;;;;0.00;0.00;;;19.40;99.90;;;;;;5057129;28;20488;-68
2022/08/31 09:01:55;;;;;;;0.00;0.00;;;19.40;99.90;;;;;;5057695;28;20450;-69
2022/08/31 09:04:39;;;;;;;0.00;0.00;;;19.50;99.90;;;;;;5057100;28;20471;-69
2022/08/31 09:07:24;;;;;;;0.00;0.00;;;19.50;99.90;;;;;;5057639;28;20426;-69
2022/08/31 09:10:05;;;;;;;0.00;0.00;;;19.60;99.90;;;;;;5057287;28;20846;-68
2022/08/31 09:12:43;;;;;;;0.00;0.00;;;19.70;99.90;;;;;;5057449;28;20664;-69
2022/08/31 09:15:44;;;;;;;0.00;0.00;;;19.80;99.90;;;;;;5057426;28;20492;-69
2022/08/31 09:18:24;;;;;;;0.00;0.00;;;19.80;99.90;;;;;;5060284;28;20833;-70
2022/08/31 09:21:14;;;;;;;0.00;0.00;;;19.90;99.90;;;;;;5061164;28;20504;-67
2022/08/31 09:23:48;;;;;;;0.00;0.00;;;19.90;99.90;;;;;;5063017;28;20536;-68
2022/08/31 09:26:19;;;;;;;0.00;0.00;;;20.00;99.90;;;;;;5066159;28;20798;-71
2022/08/31 09:28:51;;;;;;;0.00;0.00;;;20.00;99.90;;;;;;5061427;28;20455;-71
2022/08/31 09:31:36;;;;;;;0.00;0.00;;;20.10;99.90;;;;;;5060962;28;20450;-72
2022/08/31 09:34:13;;;;;;;0.00;0.00;;;20.30;99.90;;;;;;5061521;28;20489;-72
2022/08/31 09:36:41;;;;;;;0.00;0.00;;;20.20;99.90;;;;;;5060706;28;20999;-71
2022/08/31 09:39:17;;;;;;;0.00;0.00;;;20.20;99.90;;;;;;5061036;28;20463;-71
2022/08/31 09:41:48;;;;;;;0.00;0.00;;;20.20;99.90;;;;;;5061635;28;20754;-72
2022/08/31 09:44:33;;;;;;;0.00;0.00;;;20.30;99.90;;;;;;5061497;28;20705;-73
2022/08/31 09:47:04;;;;;;;0.00;0.00;;;20.50;99.90;;;;;;5060450;28;21126;-70
2022/08/31 09:49:35;;;;;;;0.00;0.00;;;20.70;99.90;;;;;;5061093;28;20613;-73
2022/08/31 09:55:11;;;;;;;0.00;0.00;;;20.70;99.90;;;;;;5060814;28;20706;-73
2022/08/31 09:55:12;;;;;;;0.00;0.00;;;20.90;99.90;;;;;;5061147;28;20800;-72
2022/08/31 09:57:52;;;;;;;0.00;0.00;;;21.00;99.90;;;;;;5060462;28;20968;-72
2022/08/31 10:00:33;;;;;;;0.00;0.00;;;20.90;99.90;;;;;;5060972;28;20567;-73
2022/08/31 10:03:12;;;;;;;0.00;0.00;;;21.00;99.90;;;;;;5061004;28;20623;-72
2022/08/31 10:05:43;;;;;;;0.00;0.00;;;21.00;99.90;;;;;;5060319;28;20479;-73
2022/08/31 10:08:32;;;;;;;0.00;0.00;;;20.90;99.90;;;;;;5061391;28;20534;-72
2022/08/31 10:11:09;;;;;;;0.00;0.00;;;20.80;99.90;;;;;;5060952;28;20493;-74
2022/08/31 10:13:41;;;;;;;0.00;0.00;;;20.70;99.90;;;;;;5060762;28;20439;-74
2022/08/31 10:16:16;;;;;;;0.00;0.00;;;20.60;99.90;;;;;;5062297;28;20442;-72
2022/08/31 10:18:54;;;;;;;0.00;0.00;;;20.60;99.90;;;;;;5060322;28;20490;-71
2022/08/31 10:21:30;;;;;;;0.00;0.00;;;20.60;99.90;;;;;;5060296;28;20609;-71
2022/08/31 10:24:09;;;;;;;0.00;0.00;;;20.70;99.90;;;;;;5060260;28;20438;-69
2022/08/31 10:26:45;;;;;;;0.00;0.00;;;20.70;99.90;;;;;;5049332;28;20558;-70
2022/08/31 10:29:20;;;;;;;0.00;0.00;;;20.70;99.90;;;;;;5043226;28;20456;-69
2022/08/31 10:31:53;;;;;;;0.00;0.00;;;20.70;99.90;;;;;;5050708;28;20427;-71
2022/08/31 10:37:19;;;;;;;0.00;0.00;;;21.00;99.90;;;;;;5047919;28;20550;-69
2022/08/31 10:39:51;;;;;;;0.00;0.00;;;21.20;99.90;;;;;;5047936;28;20956;-69
2022/08/31 10:42:28;;;;;;;0.00;0.00;;;21.40;99.90;;;;;;5049700;28;20433;-71
2022/08/31 10:45:03;;;;;;;0.00;0.00;;;21.60;99.90;;;;;;5049002;28;20473;-71
2022/08/31 10:47:32;;;;;;;0.00;0.00;;;21.70;99.90;;;;;;5046829;28;20432;-68
2022/08/31 10:50:03;;;;;;;0.00;0.00;;;21.70;99.90;;;;;;5047548;28;20518;-71
2022/08/31 10:52:36;;;;;;;0.00;0.00;;;21.80;99.90;;;;;;5050372;28;20424;-71
2022/08/31 10:55:13;;;;;;;0.00;0.00;;;21.70;99.90;;;;;;5050270;28;20428;-75
2022/08/31 10:57:50;;;;;;;0.00;0.00;;;21.70;99.90;;;;;;5049585;28;20440;-74
2022/08/31 11:03:16;;;;;;;0.00;0.00;;;21.70;99.90;;;;;;5050319;28;20727;-69
2022/08/31 11:05:55;;;;;;;0.00;0.00;;;21.70;99.90;;;;;;5049714;28;20511;-69
2022/08/31 11:08:48;;;;;;;0.00;0.00;;;21.80;99.90;;;;;;5049317;28;20941;-71
2022/08/31 11:11:24;;;;;;;0.00;0.00;;;22.00;99.90;;;;;;5039837;28;20846;-70
2022/08/31 11:14:13;;;;;;;0.00;0.00;;;22.20;99.90;;;;;;5039551;28;20463;-70
2022/08/31 11:17:13;;;;;;;0.00;0.00;;;22.40;99.90;;;;;;5039214;28;20599;-72
2022/08/31 11:20:08;;;;;;;0.00;0.00;;;22.60;99.90;;;;;;5039021;28;20465;-70
2022/08/31 11:23:10;;;;;;;0.00;0.00;;;22.90;99.90;;;;;;5040153;28;20465;-71
2022/08/31 11:26:12;;;;;;;0.00;0.00;;;23.00;99.90;;;;;;5045543;28;20894;-72
2022/08/31 11:28:47;;;;;;;0.00;0.00;;;23.00;99.90;;;;;;5058942;28;20477;-71
2022/08/31 11:31:22;;;;;;;0.00;0.00;;;22.90;99.90;;;;;;5061999;28;20445;-70
2022/08/31 11:33:55;;;;;;;0.00;0.00;;;22.80;99.90;;;;;;5062841;28;20440;-69
2022/08/31 11:36:49;;;;;;;0.00;0.00;;;22.70;99.90;;;;;;5058467;28;20832;-70
2022/08/31 11:39:34;;;;;;;0.00;0.00;;;22.50;99.90;;;;;;5058668;28;20471;-70
2022/08/31 11:42:05;;;;;;;0.00;0.00;;;22.30;99.90;;;;;;5058647;28;20471;-71
2022/08/31 11:45:00;;;;;;;0.00;0.00;;;22.10;99.90;;;;;;5058772;28;20844;-70
2022/08/31 11:47:42;;;;;;;0.00;0.00;;;22.00;99.90;;;;;;5023754;28;20755;-72
2022/08/31 11:50:28;;;;;;;0.00;0.00;;;21.80;99.90;;;;;;5057664;28;20556;-73
2022/08/31 11:52:58;;;;;;;0.00;0.00;;;21.80;99.90;;;;;;5057471;28;20734;-72
2022/08/31 11:55:44;;;;;;;0.00;0.00;;;21.90;99.90;;;;;;5057766;28;20447;-73
2022/08/31 11:58:25;;;;;;;0.00;0.00;;;21.90;99.90;;;;;;5058582;28;20432;-73
2022/08/31 12:00:58;;;;;;;0.00;0.00;;;21.80;99.90;;;;;;5058175;28;20437;-72
2022/08/31 12:03:43;;;;;;;0.00;0.00;;;21.70;99.90;;;;;;5059125;28;20451;-69
2022/08/31 12:07:05;;;;;;;0.00;0.00;;;21.70;99.90;;;;;;5057500;28;20490;-71
2022/08/31 12:10:07;;;;;;;0.00;0.00;;;21.70;99.90;;;;;;5058642;28;20462;-73
2022/08/31 12:13:32;;;;;;;0.00;0.00;;;21.70;99.90;;;;;;5058658;28;21101;-70
2022/08/31 12:16:26;;;;;;;0.00;0.00;;;21.80;99.90;;;;;;4976302;28;20469;-72
2022/08/31 12:25:16;;;;;;;0.00;0.00;;;22.10;99.90;;;;;;5057935;28;20484;-70
2022/08/31 12:27:52;;;;;;;0.00;0.00;;;22.20;99.90;;;;;;5039488;28;21185;-71
2022/08/31 12:30:22;;;;;;;0.00;0.00;;;22.10;99.90;;;;;;5038883;28;20452;-73
2022/08/31 12:32:58;;;;;;;0.00;0.00;;;22.10;99.90;;;;;;5041160;28;20437;-72
2022/08/31 12:35:29;;;;;;;0.00;0.00;;;22.10;99.90;;;;;;5047296;28;20476;-73
2022/08/31 12:38:04;;;;;;;0.00;0.00;;;22.00;99.90;;;;;;5050730;28;20468;-74
2022/08/31 12:40:34;;;;;;;0.00;0.00;;;22.00;99.90;;;;;;5044891;28;20429;-74
2022/08/31 12:43:08;;;;;;;0.00;0.00;;;22.00;99.90;;;;;;5040695;28;20444;-74
2022/08/31 12:46:12;;;;;;;0.00;0.00;;;22.00;99.90;;;;;;5039593;28;21209;-74
2022/08/31 12:49:04;;;;;;;0.00;0.00;;;22.00;99.90;;;;;;5035093;28;20455;-74
2022/08/31 12:51:42;;;;;;;0.00;0.00;;;22.10;99.90;;;;;;5038392;28;20433;-73
2022/08/31 12:54:40;;;;;;;0.00;0.00;;;22.20;99.80;;;;;;5043341;28;20943;-73
2022/08/31 12:57:18;;;;;;;0.00;0.00;;;22.30;99.80;;;;;;5042958;28;20429;-73
2022/08/31 13:00:03;;;;;;;0.00;0.00;;;22.40;99.90;;;;;;5042082;28;20461;-73
2022/08/31 13:02:32;;;;;;;0.00;0.00;;;22.60;99.50;;;;;;5042703;28;20443;-74
2022/08/31 13:05:02;;;;;;;0.00;0.00;;;22.80;99.20;;;;;;5042736;28;20431;-76
2022/08/31 13:07:32;;;;;;;0.00;0.00;;;23.00;99.20;;;;;;5045188;28;20465;-74
2022/08/31 13:10:09;;;;;;;0.00;0.00;;;23.30;99.10;;;;;;5050471;28;20548;-72
2022/08/31 13:12:38;;;;;;;0.00;0.00;;;23.40;98.90;;;;;;5053347;28;20437;-76
2022/08/31 13:15:10;;;;;;;0.00;0.00;;;23.50;98.60;;;;;;5042642;28;20457;-73
2022/08/31 13:17:41;;;;;;;0.00;0.00;;;23.70;98.70;;;;;;5041890;28;20445;-73
2022/08/31 13:20:11;;;;;;;0.00;0.00;;;23.80;98.60;;;;;;5048507;28;20576;-74
2022/08/31 13:22:39;;;;;;;0.00;0.00;;;23.90;98.70;;;;;;5054244;28;21041;-73
2022/08/31 13:25:18;;;;;;;0.00;0.00;;;24.00;98.20;;;;;;5051829;28;20517;-73
2022/08/31 13:27:49;;;;;;;0.00;0.00;;;24.00;98.30;;;;;;5054754;28;20451;-73
2022/08/31 13:30:22;;;;;;;0.00;0.00;;;23.90;98.20;;;;;;5051881;28;20557;-72
2022/08/31 13:32:53;;;;;;;0.00;0.00;;;23.80;98.20;;;;;;5055608;28;20588;-74
2022/08/31 13:35:24;;;;;;;0.00;0.00;;;23.80;98.20;;;;;;5048585;28;20491;-72
2022/08/31 13:38:02;;;;;;;0.00;0.00;;;23.70;98.20;;;;;;5050148;28;20522;-73
2022/08/31 13:40:35;;;;;;;0.00;0.00;;;23.60;98.30;;;;;;5043230;28;20449;-73
2022/08/31 13:43:06;;;;;;;0.00;0.00;;;23.50;98.10;;;;;;5048114;28;20719;-72
2022/08/31 13:45:39;;;;;;;0.00;0.00;;;23.40;97.90;;;;;;5052700;28;20454;-73